Time;durP1;ratioP1;P1;durP2;ratioP2;P2;SDS_P1;SDS_P2;PMS_P1;PMS_P2;Temp;Humidity;BMP_temperature;BMP_pressure;BME280_temperature;BME280_humidity;BME280_pressure;Samples;Min_cycle;Max_cycle;Signal;HPM_P1;HPM_P2
2021/03/12 00:00:41;;;;;;;2.40;1.40;;;7.30;99.90;;;;;;5053309;28;20473;-62
2021/03/12 00:03:35;;;;;;;2.83;1.47;;;7.30;99.90;;;;;;5053960;28;20444;-60
2021/03/12 00:06:06;;;;;;;2.90;1.43;;;7.30;99.90;;;;;;5053897;28;20498;-61
2021/03/12 00:08:36;;;;;;;5.27;1.63;;;7.30;99.90;;;;;;5053853;28;20975;-60
2021/03/12 00:11:04;;;;;;;4.83;1.43;;;7.30;99.90;;;;;;5054420;28;20860;-60
2021/03/12 00:13:32;;;;;;;2.83;1.40;;;7.30;99.90;;;;;;5054095;28;20468;-60
2021/03/12 00:16:01;;;;;;;1.50;1.40;;;7.40;99.90;;;;;;5053027;28;20488;-60
2021/03/12 00:18:33;;;;;;;4.07;2.30;;;7.30;99.90;;;;;;5053922;28;20500;-60
2021/03/12 00:21:02;;;;;;;2.03;1.83;;;7.30;99.90;;;;;;5052401;28;20441;-60
2021/03/12 00:23:30;;;;;;;2.13;1.63;;;7.30;99.90;;;;;;5035823;28;20422;-61
2021/03/12 00:25:58;;;;;;;1.73;1.60;;;7.30;99.90;;;;;;5053903;28;20444;-60
2021/03/12 00:28:27;;;;;;;1.87;1.40;;;7.30;99.90;;;;;;5036064;28;20462;-60
2021/03/12 00:30:54;;;;;;;2.27;1.57;;;7.30;99.90;;;;;;5052841;28;20453;-61
2021/03/12 00:33:27;;;;;;;2.63;1.60;;;7.20;99.90;;;;;;5035771;28;21051;-61
2021/03/12 00:35:55;;;;;;;1.53;1.40;;;7.30;99.90;;;;;;5054770;28;20434;-60
2021/03/12 00:38:23;;;;;;;7.53;1.50;;;7.20;99.90;;;;;;5054924;28;20785;-63
2021/03/12 00:40:53;;;;;;;4.40;1.90;;;7.10;99.90;;;;;;5036377;28;20453;-60
2021/03/12 00:43:24;;;;;;;1.60;1.40;;;7.10;99.90;;;;;;5036019;28;20452;-61
2021/03/12 00:45:57;;;;;;;1.23;1.10;;;7.10;99.90;;;;;;5035178;28;20450;-60
2021/03/12 00:48:26;;;;;;;5.03;1.77;;;7.00;99.90;;;;;;5053925;28;20414;-60
2021/03/12 00:50:56;;;;;;;3.00;1.57;;;6.90;99.90;;;;;;5035983;28;20510;-60
2021/03/12 00:53:34;;;;;;;3.23;2.13;;;7.00;99.90;;;;;;5035523;28;20498;-61
2021/03/12 00:56:05;;;;;;;2.90;1.50;;;6.90;99.90;;;;;;5024601;28;20959;-60
2021/03/12 00:58:34;;;;;;;3.83;1.40;;;6.90;99.90;;;;;;5066847;28;20434;-61
2021/03/12 01:01:05;;;;;;;4.60;1.70;;;6.90;99.90;;;;;;5052465;28;20851;-60
2021/03/12 01:03:37;;;;;;;3.17;1.43;;;6.90;99.90;;;;;;5072285;28;20502;-60
2021/03/12 01:06:09;;;;;;;3.60;1.83;;;6.80;99.90;;;;;;5070675;28;20407;-61
2021/03/12 01:08:51;;;;;;;2.60;1.33;;;6.80;99.90;;;;;;5071379;28;20427;-61
2021/03/12 01:11:45;;;;;;;2.90;1.73;;;6.80;99.90;;;;;;5054771;28;20419;-62
2021/03/12 01:14:16;;;;;;;2.20;1.63;;;6.80;99.90;;;;;;5038163;28;20467;-60
2021/03/12 01:16:49;;;;;;;3.07;1.73;;;6.70;99.90;;;;;;5057530;28;20521;-60
2021/03/12 01:19:22;;;;;;;3.10;1.23;;;6.70;99.90;;;;;;5056911;28;20427;-60
2021/03/12 01:21:57;;;;;;;3.07;1.33;;;6.70;99.90;;;;;;5057956;28;20439;-59
2021/03/12 01:24:30;;;;;;;5.33;1.93;;;6.80;99.90;;;;;;5039470;28;20420;-60
2021/03/12 01:27:03;;;;;;;2.80;1.53;;;6.80;99.90;;;;;;5055834;28;20481;-63
2021/03/12 01:29:31;;;;;;;1.37;1.27;;;6.80;99.90;;;;;;5057435;28;20443;-63
2021/03/12 01:32:08;;;;;;;4.40;1.50;;;6.90;99.90;;;;;;5054605;28;20550;-60
2021/03/12 01:37:39;;;;;;;1.70;1.23;;;6.70;99.90;;;;;;5039457;28;20444;-60
2021/03/12 01:40:09;;;;;;;0.60;0.57;;;5.60;99.90;;;;;;5038823;28;20446;-60
2021/03/12 01:42:53;;;;;;;2.13;0.80;;;4.80;99.90;;;;;;5038798;28;20426;-60
2021/03/12 01:45:23;;;;;;;1.70;0.77;;;4.30;99.90;;;;;;5037649;28;20435;-62
2021/03/12 01:47:52;;;;;;;0.50;0.50;;;4.00;99.90;;;;;;5038860;28;20442;-60
2021/03/12 01:50:21;;;;;;;3.17;0.93;;;3.90;99.90;;;;;;5038542;28;20449;-60
2021/03/12 01:53:17;;;;;;;1.37;0.60;;;3.80;99.90;;;;;;5056467;28;20644;-60
2021/03/12 01:55:45;;;;;;;0.80;0.67;;;3.80;99.90;;;;;;5056193;28;20537;-62
2021/03/12 01:58:14;;;;;;;0.70;0.47;;;3.90;99.90;;;;;;5055266;28;20852;-60
2021/03/12 02:00:51;;;;;;;0.63;0.50;;;3.90;99.90;;;;;;5037759;28;20476;-60
2021/03/12 02:03:36;;;;;;;1.77;0.70;;;3.90;99.90;;;;;;5038798;28;20434;-61
2021/03/12 02:06:30;;;;;;;1.13;0.73;;;4.00;99.90;;;;;;5044735;28;21008;-64
2021/03/12 02:09:01;;;;;;;1.80;0.93;;;4.00;99.90;;;;;;5039261;28;20589;-60
2021/03/12 02:11:43;;;;;;;0.40;0.40;;;4.10;99.90;;;;;;5057657;28;20429;-61
2021/03/12 02:14:19;;;;;;;0.60;0.60;;;4.20;99.90;;;;;;5041379;28;20517;-62
2021/03/12 02:16:52;;;;;;;5.57;0.80;;;4.20;99.90;;;;;;5067059;28;20480;-61
2021/03/12 02:19:36;;;;;;;2.30;0.70;;;4.20;99.90;;;;;;5047782;28;20435;-62
2021/03/12 02:22:07;;;;;;;1.50;0.80;;;4.30;99.90;;;;;;5060153;28;20426;-61
2021/03/12 02:24:41;;;;;;;0.60;0.50;;;4.30;99.90;;;;;;5041662;28;20449;-61
2021/03/12 02:27:21;;;;;;;1.60;0.77;;;4.30;99.90;;;;;;5059149;28;20988;-61
2021/03/12 02:29:54;;;;;;;0.97;0.60;;;4.30;99.90;;;;;;5038767;28;20441;-64
2021/03/12 02:32:31;;;;;;;0.90;0.60;;;4.20;99.90;;;;;;5053690;28;20523;-61
2021/03/12 02:35:04;;;;;;;0.90;0.70;;;4.20;99.90;;;;;;5037872;28;20882;-61
2021/03/12 02:37:33;;;;;;;1.30;0.90;;;4.10;99.90;;;;;;5054670;28;20513;-61
2021/03/12 02:40:02;;;;;;;1.27;0.60;;;4.10;99.90;;;;;;5037680;28;20423;-60
2021/03/12 02:42:42;;;;;;;1.43;1.03;;;4.20;99.90;;;;;;5054682;28;20438;-63
2021/03/12 02:45:12;;;;;;;0.80;0.73;;;4.20;99.90;;;;;;5037283;28;20438;-60
2021/03/12 02:47:44;;;;;;;2.40;1.10;;;4.40;99.90;;;;;;5054053;28;20493;-60
2021/03/12 02:50:17;;;;;;;3.17;0.80;;;4.40;99.90;;;;;;5037830;28;20495;-60
2021/03/12 02:52:46;;;;;;;0.70;0.70;;;4.50;99.90;;;;;;5037626;28;20509;-60
2021/03/12 02:55:18;;;;;;;1.23;0.80;;;4.60;99.90;;;;;;5037575;28;20481;-61
2021/03/12 02:57:58;;;;;;;1.67;0.80;;;4.50;99.90;;;;;;5037565;28;20462;-60
2021/03/12 03:00:27;;;;;;;1.33;1.13;;;4.50;99.90;;;;;;5036635;28;20538;-60
2021/03/12 03:03:15;;;;;;;0.70;0.60;;;4.50;99.90;;;;;;5055472;28;20438;-61
2021/03/12 03:06:21;;;;;;;1.73;0.73;;;4.50;99.90;;;;;;4974528;28;20463;-60
2021/03/12 03:08:49;;;;;;;1.87;0.73;;;4.50;99.90;;;;;;4975373;28;20448;-63
2021/03/12 03:11:18;;;;;;;8.10;0.90;;;4.50;99.90;;;;;;5015050;28;20821;-60
2021/03/12 03:14:03;;;;;;;1.47;0.80;;;4.50;99.90;;;;;;5038055;28;20498;-61
2021/03/12 03:16:36;;;;;;;2.43;0.90;;;4.50;99.90;;;;;;5036927;28;20486;-60
2021/03/12 03:19:08;;;;;;;1.23;0.90;;;4.50;99.90;;;;;;5057895;28;20415;-60
2021/03/12 03:21:36;;;;;;;2.70;1.00;;;4.50;99.90;;;;;;5038600;28;20930;-60
2021/03/12 03:24:05;;;;;;;1.50;0.90;;;4.50;99.90;;;;;;5057497;28;20426;-63
2021/03/12 03:26:33;;;;;;;0.97;0.93;;;4.40;99.90;;;;;;5057657;28;20793;-60
2021/03/12 03:29:00;;;;;;;1.90;1.13;;;4.40;99.90;;;;;;5056379;28;20839;-60
2021/03/12 03:31:29;;;;;;;2.60;0.80;;;4.40;99.90;;;;;;5040627;28;20476;-60
2021/03/12 03:33:57;;;;;;;3.20;1.13;;;4.40;99.90;;;;;;5066090;28;20434;-60
2021/03/12 03:36:25;;;;;;;1.43;1.20;;;4.50;99.90;;;;;;5071473;28;20975;-59
2021/03/12 03:38:54;;;;;;;0.80;0.70;;;4.70;99.90;;;;;;5056160;28;20446;-61
2021/03/12 03:41:22;;;;;;;2.17;1.23;;;4.60;99.90;;;;;;5074248;28;20427;-59
2021/03/12 03:43:52;;;;;;;1.10;1.00;;;4.60;99.90;;;;;;5070670;28;20638;-61
2021/03/12 03:46:26;;;;;;;3.50;1.43;;;4.70;99.90;;;;;;5055595;28;20474;-62
2021/03/12 03:48:56;;;;;;;2.37;0.97;;;4.70;99.90;;;;;;5074231;28;20522;-59
2021/03/12 03:51:43;;;;;;;4.10;1.13;;;4.70;99.90;;;;;;5074728;28;20454;-61
2021/03/12 03:54:21;;;;;;;2.10;1.20;;;4.60;99.90;;;;;;5080151;22;20555;-63
2021/03/12 03:56:56;;;;;;;3.40;1.40;;;4.60;99.90;;;;;;5049515;28;20434;-64
2021/03/12 03:59:24;;;;;;;1.13;0.90;;;4.70;99.90;;;;;;5034402;28;20426;-63
2021/03/12 04:01:52;;;;;;;3.00;1.20;;;4.70;99.90;;;;;;5045086;28;20524;-67
2021/03/12 04:04:22;;;;;;;5.13;1.20;;;4.60;99.90;;;;;;5046290;28;20435;-64
2021/03/12 04:06:50;;;;;;;8.00;1.07;;;4.60;99.90;;;;;;5044802;28;20442;-63
2021/03/12 04:12:13;;;;;;;2.17;1.00;;;4.70;99.90;;;;;;5038725;28;20793;-64
2021/03/12 04:14:46;;;;;;;7.23;1.30;;;4.60;99.90;;;;;;5039626;28;20470;-64
2021/03/12 04:17:16;;;;;;;2.50;1.17;;;4.60;99.90;;;;;;5039473;28;20480;-66
2021/03/12 04:19:47;;;;;;;5.70;1.53;;;4.50;99.90;;;;;;5042823;28;20462;-65
2021/03/12 04:22:15;;;;;;;2.07;1.40;;;4.60;99.90;;;;;;5042835;28;20427;-64
2021/03/12 04:24:45;;;;;;;1.00;0.90;;;4.60;99.90;;;;;;5025649;28;20429;-64
2021/03/12 04:27:19;;;;;;;1.27;1.00;;;4.70;99.90;;;;;;5040527;28;20487;-64
2021/03/12 04:29:47;;;;;;;1.83;1.53;;;4.70;99.90;;;;;;5023098;28;20433;-64
2021/03/12 04:32:15;;;;;;;1.90;1.20;;;4.70;99.90;;;;;;5053528;28;20466;-64
2021/03/12 04:35:11;;;;;;;3.47;1.40;;;4.70;99.90;;;;;;5020178;28;20474;-64
2021/03/12 04:37:41;;;;;;;1.90;1.30;;;4.70;99.90;;;;;;5036958;28;20443;-64
2021/03/12 04:40:14;;;;;;;2.43;1.97;;;4.70;99.90;;;;;;5055085;28;20466;-64
2021/03/12 04:42:46;;;;;;;2.13;1.13;;;4.70;99.90;;;;;;5039456;28;20533;-64
2021/03/12 04:45:16;;;;;;;1.70;1.10;;;4.70;99.90;;;;;;5058115;28;20442;-64
2021/03/12 04:47:48;;;;;;;3.47;1.40;;;4.70;99.90;;;;;;5040317;28;20468;-64
2021/03/12 04:50:19;;;;;;;1.97;1.50;;;4.60;99.90;;;;;;5058447;28;20422;-68
2021/03/12 04:53:13;;;;;;;8.57;2.30;;;4.70;99.90;;;;;;5058144;28;20466;-66
2021/03/12 04:55:41;;;;;;;2.30;1.63;;;4.70;99.90;;;;;;5040844;28;20481;-63
2021/03/12 04:58:12;;;;;;;1.63;1.30;;;4.80;99.90;;;;;;5024615;28;20443;-64
2021/03/12 05:00:40;;;;;;;1.57;1.07;;;4.80;99.90;;;;;;5056891;28;20477;-66
2021/03/12 05:03:13;;;;;;;4.00;1.60;;;4.80;99.90;;;;;;5039820;28;20427;-63
2021/03/12 05:05:47;;;;;;;2.20;1.00;;;4.70;99.90;;;;;;5040228;28;20817;-64
2021/03/12 05:08:19;;;;;;;2.17;1.13;;;4.70;99.90;;;;;;5058143;28;20465;-64
2021/03/12 05:11:01;;;;;;;3.67;1.67;;;4.60;99.90;;;;;;5039820;28;20446;-65
2021/03/12 05:13:36;;;;;;;1.60;1.00;;;4.60;99.90;;;;;;5036951;28;20438;-64
2021/03/12 05:16:05;;;;;;;2.33;1.10;;;4.60;99.90;;;;;;5054110;28;20482;-65
2021/03/12 05:18:34;;;;;;;1.70;1.40;;;4.50;99.90;;;;;;5037484;28;20434;-65
2021/03/12 05:21:07;;;;;;;4.33;1.30;;;4.50;99.90;;;;;;5037129;28;20493;-67
2021/03/12 05:23:35;;;;;;;2.90;2.30;;;4.50;99.90;;;;;;5036704;28;20431;-64
2021/03/12 05:26:03;;;;;;;5.80;4.20;;;4.50;99.90;;;;;;5036719;28;20429;-64
2021/03/12 05:28:33;;;;;;;5.50;3.30;;;4.50;99.90;;;;;;5035877;28;20863;-68
2021/03/12 05:31:00;;;;;;;6.33;3.80;;;4.50;99.90;;;;;;5052100;28;20466;-64
2021/03/12 05:33:29;;;;;;;4.37;3.20;;;4.50;99.90;;;;;;5036863;28;20434;-67
2021/03/12 05:35:59;;;;;;;3.50;1.77;;;4.50;99.90;;;;;;5036692;28;21022;-65
2021/03/12 05:38:28;;;;;;;1.97;1.60;;;4.50;99.90;;;;;;5036866;28;20961;-63
2021/03/12 05:40:56;;;;;;;1.63;1.53;;;4.50;99.90;;;;;;5057266;28;20801;-64
2021/03/12 05:43:24;;;;;;;5.40;2.40;;;4.50;99.90;;;;;;5056199;28;20446;-63
2021/03/12 05:46:00;;;;;;;2.50;1.43;;;4.50;99.90;;;;;;5023192;28;20603;-66
2021/03/12 05:48:31;;;;;;;1.30;1.20;;;4.60;99.90;;;;;;5039653;28;20438;-63
2021/03/12 05:50:59;;;;;;;1.33;1.13;;;4.70;99.90;;;;;;5037933;28;20862;-64
2021/03/12 05:53:31;;;;;;;3.27;1.30;;;4.80;99.90;;;;;;5034272;28;20467;-63
2021/03/12 05:56:00;;;;;;;3.70;1.70;;;4.90;99.90;;;;;;5035488;28;20463;-63
2021/03/12 05:58:39;;;;;;;3.63;1.50;;;4.90;99.90;;;;;;5034085;28;20431;-66
2021/03/12 06:01:08;;;;;;;2.40;2.20;;;4.90;99.90;;;;;;5036308;28;20505;-63
2021/03/12 06:03:37;;;;;;;2.23;1.40;;;5.00;99.90;;;;;;5021312;28;20922;-65
2021/03/12 06:06:04;;;;;;;5.63;1.83;;;5.00;99.90;;;;;;5039082;28;20447;-64
2021/03/12 06:08:36;;;;;;;2.67;1.60;;;5.00;99.90;;;;;;5023448;28;20530;-65
2021/03/12 06:11:08;;;;;;;1.87;1.33;;;5.00;99.90;;;;;;5039601;28;20510;-63
2021/03/12 06:13:49;;;;;;;2.40;1.33;;;4.90;99.90;;;;;;5039967;28;20434;-63
2021/03/12 06:16:54;;;;;;;4.00;1.40;;;5.00;99.90;;;;;;5040448;28;20502;-63
2021/03/12 06:19:37;;;;;;;3.67;2.43;;;5.00;99.90;;;;;;5038739;28;20498;-64
2021/03/12 06:22:12;;;;;;;1.80;1.30;;;5.20;99.90;;;;;;5023423;28;20434;-63
2021/03/12 06:24:50;;;;;;;3.97;1.87;;;5.40;99.90;;;;;;5039310;28;20437;-64
2021/03/12 06:27:31;;;;;;;2.13;1.30;;;6.00;99.90;;;;;;5039894;28;20431;-69
2021/03/12 06:30:23;;;;;;;2.53;1.50;;;6.70;99.90;;;;;;5030765;28;20444;-63
2021/03/12 06:33:26;;;;;;;1.43;1.10;;;8.60;99.90;;;;;;5038898;28;20415;-64
2021/03/12 06:36:05;;;;;;;2.43;1.57;;;9.90;98.50;;;;;;5021429;28;21064;-64
2021/03/12 06:38:56;;;;;;;2.83;1.30;;;9.70;97.70;;;;;;5037694;28;20434;-64
2021/03/12 06:42:03;;;;;;;3.50;1.60;;;8.40;99.90;;;;;;5023996;28;20514;-64
2021/03/12 06:44:37;;;;;;;5.90;2.90;;;7.20;99.90;;;;;;5035483;28;20464;-63
2021/03/12 06:47:12;;;;;;;2.40;1.30;;;6.70;99.90;;;;;;5034995;28;20476;-65
2021/03/12 06:49:53;;;;;;;7.13;1.47;;;6.60;99.90;;;;;;5019677;28;20436;-64
2021/03/12 06:52:32;;;;;;;2.93;1.37;;;6.40;99.90;;;;;;5036513;28;20534;-66
2021/03/12 06:55:02;;;;;;;3.23;1.80;;;5.80;99.90;;;;;;5015751;28;20495;-67
2021/03/12 06:57:42;;;;;;;4.00;1.90;;;5.80;99.90;;;;;;5017019;28;20958;-65
2021/03/12 07:00:16;;;;;;;1.50;1.40;;;6.10;99.90;;;;;;5017258;28;20447;-65
2021/03/12 07:02:49;;;;;;;4.70;2.00;;;5.70;99.90;;;;;;5015826;28;20555;-65
2021/03/12 07:05:53;;;;;;;2.47;2.07;;;6.10;99.90;;;;;;5016757;28;20506;-63
2021/03/12 07:08:37;;;;;;;3.47;1.30;;;6.20;99.90;;;;;;5026757;28;20403;-66
2021/03/12 07:11:28;;;;;;;6.07;1.83;;;5.70;99.90;;;;;;5026665;28;20474;-64
2021/03/12 07:14:30;;;;;;;3.03;1.63;;;7.60;99.90;;;;;;5016913;28;20449;-64
2021/03/12 07:17:17;;;;;;;3.53;1.00;;;9.40;99.90;;;;;;5014095;28;20487;-66
2021/03/12 07:19:46;;;;;;;3.07;1.50;;;11.40;95.50;;;;;;5016747;28;20439;-63
2021/03/12 07:22:17;;;;;;;3.93;1.10;;;12.80;93.70;;;;;;5016109;28;20433;-64
2021/03/12 07:24:48;;;;;;;4.00;2.43;;;12.10;91.00;;;;;;5015920;28;20955;-65
2021/03/12 07:27:18;;;;;;;2.37;1.30;;;9.70;95.80;;;;;;5015836;28;20436;-63
2021/03/12 07:30:13;;;;;;;2.13;1.80;;;8.00;99.90;;;;;;5015374;28;20411;-66
2021/03/12 07:32:45;;;;;;;1.20;0.90;;;7.50;99.90;;;;;;5017503;28;20430;-63
2021/03/12 07:35:17;;;;;;;4.33;2.80;;;7.00;99.90;;;;;;5016755;28;20513;-66
2021/03/12 07:37:56;;;;;;;2.23;1.37;;;6.70;99.90;;;;;;5016975;28;20469;-66
2021/03/12 07:40:30;;;;;;;1.27;1.17;;;6.30;99.90;;;;;;5016791;28;20436;-63
2021/03/12 07:43:08;;;;;;;2.47;0.83;;;6.30;99.90;;;;;;5016694;28;20438;-63
2021/03/12 07:45:55;;;;;;;2.13;1.13;;;6.40;99.90;;;;;;5016148;28;20478;-65
2021/03/12 07:48:47;;;;;;;5.83;1.80;;;6.60;99.90;;;;;;4999313;28;20947;-68
2021/03/12 07:51:22;;;;;;;4.33;1.57;;;6.80;99.90;;;;;;4998674;28;20417;-67
2021/03/12 07:53:57;;;;;;;1.80;1.13;;;6.90;99.90;;;;;;5009296;28;20882;-64
2021/03/12 07:56:53;;;;;;;1.23;1.00;;;7.10;99.90;;;;;;5034166;28;20468;-65
2021/03/12 07:59:59;;;;;;;1.23;1.00;;;6.90;99.90;;;;;;5034559;28;20527;-67
2021/03/12 08:03:02;;;;;;;5.60;2.50;;;6.90;99.90;;;;;;5034463;28;20465;-64
2021/03/12 08:05:59;;;;;;;3.60;1.57;;;7.10;99.90;;;;;;4998419;28;20454;-63
2021/03/12 08:08:50;;;;;;;3.07;1.60;;;7.30;99.90;;;;;;5035787;28;20440;-64
2021/03/12 08:11:36;;;;;;;3.67;1.60;;;7.00;99.90;;;;;;5038160;28;20441;-64
2021/03/12 08:14:18;;;;;;;4.47;1.57;;;7.20;99.90;;;;;;5036160;28;20410;-65
2021/03/12 08:17:20;;;;;;;1.97;1.27;;;7.30;99.90;;;;;;5033503;28;20485;-67
2021/03/12 08:23:34;;;;;;;1.13;0.93;;;8.10;99.90;;;;;;5034920;28;20415;-64
2021/03/12 08:26:50;;;;;;;3.27;1.10;;;8.30;99.90;;;;;;5036338;28;20475;-63
2021/03/12 08:29:38;;;;;;;3.90;1.60;;;8.60;99.90;;;;;;5037206;28;20421;-64
2021/03/12 08:32:39;;;;;;;2.20;0.90;;;8.30;99.90;;;;;;5034609;28;20966;-63
2021/03/12 08:35:39;;;;;;;4.43;1.40;;;8.20;99.90;;;;;;5034328;28;20594;-64
2021/03/12 08:38:38;;;;;;;3.73;1.50;;;8.50;99.40;;;;;;5029101;28;20455;-63
2021/03/12 08:41:31;;;;;;;6.40;1.53;;;10.90;96.40;;;;;;5036804;28;20420;-63
2021/03/12 08:44:14;;;;;;;5.70;1.10;;;12.10;91.10;;;;;;5018868;28;20431;-63
2021/03/12 08:47:01;;;;;;;3.57;1.50;;;12.10;91.50;;;;;;5034705;28;20475;-63
2021/03/12 08:49:38;;;;;;;3.50;1.37;;;13.60;88.70;;;;;;5033378;28;20445;-63
2021/03/12 08:52:32;;;;;;;3.03;1.47;;;16.10;77.80;;;;;;5032433;28;20442;-64
2021/03/12 08:55:20;;;;;;;1.33;0.70;;;13.30;77.80;;;;;;5034485;28;20801;-64
2021/03/12 08:57:50;;;;;;;2.30;1.20;;;10.70;86.30;;;;;;5035481;28;20446;-67
2021/03/12 09:00:21;;;;;;;4.47;1.30;;;9.80;90.10;;;;;;5035852;28;20504;-63
2021/03/12 09:03:19;;;;;;;5.27;2.43;;;9.30;91.80;;;;;;5036001;28;20431;-64
2021/03/12 09:06:09;;;;;;;3.53;1.50;;;9.10;92.60;;;;;;5014824;28;20451;-63
2021/03/12 09:08:58;;;;;;;1.97;1.40;;;9.20;92.90;;;;;;5035889;28;20458;-66
2021/03/12 09:12:09;;;;;;;4.80;1.50;;;11.40;90.80;;;;;;4973713;28;20775;-64
2021/03/12 09:14:48;;;;;;;5.20;2.50;;;11.70;86.90;;;;;;4941947;28;20545;-65
2021/03/12 09:17:19;;;;;;;1.70;0.90;;;10.20;89.40;;;;;;5017132;28;20483;-62
2021/03/12 09:19:53;;;;;;;1.63;1.17;;;9.10;91.60;;;;;;5033645;28;20436;-64
2021/03/12 09:22:30;;;;;;;3.50;1.60;;;8.50;93.10;;;;;;5033461;28;20510;-64
2021/03/12 09:25:02;;;;;;;2.17;1.40;;;8.60;93.90;;;;;;5034127;28;20401;-65
2021/03/12 09:27:57;;;;;;;1.90;1.20;;;9.80;92.30;;;;;;5033888;28;20426;-63
2021/03/12 09:30:26;;;;;;;2.60;1.40;;;9.10;92.60;;;;;;5034857;28;20470;-62
2021/03/12 09:33:04;;;;;;;7.93;1.73;;;9.40;93.20;;;;;;5033960;28;20463;-64
2021/03/12 09:35:43;;;;;;;2.13;0.90;;;10.10;92.00;;;;;;5037223;28;20445;-66
2021/03/12 09:38:27;;;;;;;3.43;1.27;;;9.90;91.60;;;;;;5038091;28;20569;-67
2021/03/12 09:41:14;;;;;;;1.47;0.90;;;10.00;91.40;;;;;;5038533;28;20432;-64
2021/03/12 09:43:43;;;;;;;1.77;0.97;;;11.70;90.20;;;;;;5038145;28;20523;-63
2021/03/12 09:46:15;;;;;;;4.20;1.10;;;14.00;82.80;;;;;;5036137;28;20552;-62
2021/03/12 09:48:58;;;;;;;1.83;1.37;;;16.30;73.40;;;;;;5019062;28;20429;-64
2021/03/12 09:51:35;;;;;;;2.30;1.50;;;15.10;70.10;;;;;;5035151;28;20451;-64
2021/03/12 09:54:03;;;;;;;2.93;1.10;;;14.90;73.40;;;;;;5034382;28;20441;-64
2021/03/12 09:56:40;;;;;;;2.43;1.43;;;14.60;72.90;;;;;;5018973;28;20570;-64
2021/03/12 09:59:10;;;;;;;2.27;1.47;;;13.90;74.20;;;;;;5036765;28;20808;-64
2021/03/12 10:02:03;;;;;;;1.63;1.00;;;11.70;78.90;;;;;;5029948;28;20472;-64
2021/03/12 10:04:56;;;;;;;2.07;1.20;;;11.90;80.30;;;;;;5037315;28;20439;-64
2021/03/12 10:08:05;;;;;;;2.73;1.30;;;11.70;82.80;;;;;;5027354;28;20962;-64
2021/03/12 10:11:01;;;;;;;1.07;0.97;;;13.40;78.40;;;;;;5037830;28;20438;-64
2021/03/12 10:14:31;;;;;;;1.23;0.90;;;14.50;73.40;;;;;;5037539;28;20442;-64
2021/03/12 10:17:07;;;;;;;3.73;1.10;;;12.70;76.20;;;;;;5035152;28;20489;-64
2021/03/12 10:19:53;;;;;;;3.23;1.03;;;10.90;79.30;;;;;;5037799;28;20443;-65
2021/03/12 10:22:25;;;;;;;2.73;0.70;;;10.00;82.40;;;;;;5019882;28;20467;-63
2021/03/12 10:24:58;;;;;;;3.07;2.33;;;9.70;85.70;;;;;;5037668;28;20419;-65
2021/03/12 10:27:30;;;;;;;1.37;1.00;;;9.40;87.60;;;;;;5038293;28;20439;-64
2021/03/12 10:29:59;;;;;;;5.53;1.47;;;9.70;87.00;;;;;;5037278;28;20446;-64
2021/03/12 10:32:28;;;;;;;2.07;1.00;;;9.70;86.90;;;;;;5036297;28;20849;-64
2021/03/12 10:34:57;;;;;;;5.43;1.52;;;9.90;86.50;;;;;;5036569;28;20464;-66
2021/03/12 10:37:32;;;;;;;3.80;1.10;;;10.00;84.50;;;;;;5038371;28;20209;-66
2021/03/12 10:40:07;;;;;;;2.40;1.27;;;9.70;86.40;;;;;;5038664;28;20402;-63
2021/03/12 10:42:34;;;;;;;2.10;1.30;;;9.70;86.80;;;;;;5038193;28;20406;-65
2021/03/12 10:45:07;;;;;;;2.77;1.00;;;10.00;85.30;;;;;;5038091;28;20466;-64
2021/03/12 10:47:34;;;;;;;1.90;1.10;;;10.20;85.40;;;;;;5036134;28;20481;-64
2021/03/12 10:53:14;;;;;;;1.43;0.90;;;10.30;85.20;;;;;;5036621;28;20475;-67
2021/03/12 10:55:44;;;;;;;2.13;1.30;;;10.10;86.60;;;;;;5036500;28;20439;-63
2021/03/12 10:58:26;;;;;;;2.97;1.10;;;11.00;84.30;;;;;;5038119;28;20454;-64
2021/03/12 11:01:07;;;;;;;4.00;0.90;;;10.20;84.80;;;;;;5037097;28;20556;-67
2021/03/12 11:03:36;;;;;;;3.63;1.20;;;10.10;86.10;;;;;;5038411;28;20501;-65
2021/03/12 11:06:06;;;;;;;1.70;0.90;;;10.50;86.50;;;;;;5036768;28;20422;-66
2021/03/12 11:08:34;;;;;;;2.17;0.80;;;11.70;84.20;;;;;;5037148;28;20531;-63
2021/03/12 11:11:05;;;;;;;1.93;0.90;;;12.00;81.30;;;;;;5036823;28;20424;-64
2021/03/12 11:13:32;;;;;;;2.50;1.20;;;10.80;83.70;;;;;;5036982;28;20485;-63
2021/03/12 11:16:03;;;;;;;2.13;0.93;;;10.90;84.60;;;;;;5036240;28;20843;-64
2021/03/12 11:18:31;;;;;;;3.13;1.33;;;10.70;86.20;;;;;;5037010;28;20931;-67
2021/03/12 11:21:01;;;;;;;1.80;0.90;;;11.70;84.20;;;;;;5037071;28;20496;-63
2021/03/12 11:23:29;;;;;;;3.17;1.13;;;11.90;81.40;;;;;;5037027;28;20443;-65
2021/03/12 11:25:58;;;;;;;4.90;1.20;;;11.60;81.10;;;;;;5037272;28;20521;-64
2021/03/12 11:28:26;;;;;;;5.23;0.93;;;11.20;83.40;;;;;;5036623;28;20506;-64
2021/03/12 11:30:54;;;;;;;1.70;0.80;;;11.20;84.30;;;;;;5036039;28;20481;-64
2021/03/12 11:33:22;;;;;;;2.40;0.80;;;11.80;82.80;;;;;;5035984;28;20501;-69
2021/03/12 11:35:54;;;;;;;4.30;1.00;;;12.10;81.10;;;;;;5036726;28;20463;-64
2021/03/12 11:38:28;;;;;;;1.73;1.33;;;13.40;77.80;;;;;;5034761;28;20438;-69
2021/03/12 11:40:55;;;;;;;1.37;0.77;;;13.90;76.40;;;;;;5034946;28;20433;-67
2021/03/12 11:43:23;;;;;;;1.77;1.17;;;14.60;75.00;;;;;;5033518;28;20470;-64
2021/03/12 11:45:50;;;;;;;2.30;0.90;;;15.50;70.80;;;;;;5033613;28;20474;-62
2021/03/12 11:48:21;;;;;;;1.10;0.73;;;14.10;73.30;;;;;;5035064;28;20449;-63
2021/03/12 11:50:50;;;;;;;3.23;1.37;;;13.10;75.90;;;;;;5035118;28;20891;-63
2021/03/12 11:53:19;;;;;;;8.93;4.13;;;12.00;79.40;;;;;;5034808;28;20474;-63
2021/03/12 11:55:47;;;;;;;4.83;1.10;;;11.40;82.10;;;;;;5034886;28;20954;-64
2021/03/12 11:58:15;;;;;;;3.37;1.20;;;11.50;82.10;;;;;;5033908;28;20589;-63
2021/03/12 12:00:43;;;;;;;1.20;0.93;;;11.50;82.70;;;;;;5034071;28;20999;-63
2021/03/12 12:03:12;;;;;;;2.00;1.17;;;11.20;83.40;;;;;;5035225;28;20443;-63
2021/03/12 12:05:40;;;;;;;2.87;0.93;;;11.00;84.80;;;;;;5035235;28;20535;-63
2021/03/12 12:08:07;;;;;;;4.00;1.27;;;10.70;84.80;;;;;;5034935;28;20436;-63
2021/03/12 12:10:35;;;;;;;2.13;1.00;;;10.50;85.50;;;;;;5035485;28;20438;-63
2021/03/12 12:13:04;;;;;;;2.30;1.03;;;10.20;86.60;;;;;;5034919;28;20762;-62
2021/03/12 12:15:32;;;;;;;1.60;0.97;;;9.70;88.50;;;;;;5033035;28;20849;-62
2021/03/12 12:18:00;;;;;;;5.10;1.20;;;9.50;89.20;;;;;;5034121;28;20471;-63
2021/03/12 12:20:30;;;;;;;1.67;0.90;;;9.60;89.60;;;;;;5034060;28;20424;-63
2021/03/12 12:23:23;;;;;;;1.40;1.10;;;9.60;90.20;;;;;;5035412;28;20442;-64
2021/03/12 12:25:52;;;;;;;5.70;1.50;;;9.80;89.80;;;;;;5035519;28;20453;-63
2021/03/12 12:28:19;;;;;;;12.33;1.77;;;10.10;89.10;;;;;;5035177;28;20435;-63
2021/03/12 12:30:47;;;;;;;1.43;0.70;;;10.20;85.90;;;;;;5034259;28;20491;-63
2021/03/12 12:33:15;;;;;;;3.57;0.90;;;10.50;82.60;;;;;;5035467;28;21001;-62
2021/03/12 12:35:43;;;;;;;2.70;0.70;;;10.40;76.70;;;;;;5035203;28;20435;-64
2021/03/12 12:38:11;;;;;;;2.20;0.87;;;10.00;76.30;;;;;;5036260;28;20443;-63
2021/03/12 12:40:39;;;;;;;2.40;0.97;;;9.90;77.30;;;;;;5036377;28;20435;-63
2021/03/12 12:43:08;;;;;;;3.37;1.40;;;9.70;78.40;;;;;;5036888;28;20439;-63
2021/03/12 12:45:35;;;;;;;1.10;0.80;;;9.70;79.00;;;;;;5034873;28;20459;-64
2021/03/12 12:48:03;;;;;;;1.70;1.50;;;9.80;78.70;;;;;;5036718;28;20513;-64
2021/03/12 12:50:33;;;;;;;1.43;0.93;;;9.90;78.90;;;;;;5036462;28;20972;-66
2021/03/12 12:53:01;;;;;;;2.30;1.07;;;9.80;79.40;;;;;;5035958;28;20440;-63
2021/03/12 12:55:29;;;;;;;1.80;0.90;;;10.00;79.20;;;;;;5036160;28;20446;-63
2021/03/12 12:57:57;;;;;;;1.93;0.90;;;10.50;79.30;;;;;;5035620;28;20524;-64
2021/03/12 13:00:27;;;;;;;0.87;0.80;;;10.80;77.90;;;;;;5034416;28;20443;-64
2021/03/12 13:02:58;;;;;;;4.40;1.10;;;10.70;78.70;;;;;;5034782;28;20438;-64
2021/03/12 13:05:26;;;;;;;3.73;1.07;;;11.20;80.50;;;;;;5034934;28;20504;-63
2021/03/12 13:07:53;;;;;;;2.70;1.10;;;11.20;80.50;;;;;;5034853;28;20492;-63
2021/03/12 13:10:20;;;;;;;2.60;1.00;;;10.90;82.00;;;;;;5032347;28;20431;-63
2021/03/12 13:12:48;;;;;;;3.03;1.20;;;10.40;82.10;;;;;;5034508;28;20435;-63
2021/03/12 13:15:17;;;;;;;3.07;1.40;;;10.60;83.80;;;;;;5033574;28;20481;-63
2021/03/12 13:17:50;;;;;;;2.07;1.23;;;10.70;82.60;;;;;;5034661;28;20473;-63
2021/03/12 13:20:18;;;;;;;2.20;1.10;;;10.60;81.50;;;;;;5034525;28;20439;-64
2021/03/12 13:22:47;;;;;;;2.47;1.23;;;10.10;79.30;;;;;;5035408;28;20409;-63
2021/03/12 13:25:15;;;;;;;4.00;1.30;;;10.10;77.50;;;;;;5036271;28;20514;-63
2021/03/12 13:27:44;;;;;;;2.40;0.80;;;10.00;75.60;;;;;;5036377;28;20443;-64
2021/03/12 13:30:14;;;;;;;1.70;0.80;;;10.10;74.20;;;;;;5033053;28;20446;-63
2021/03/12 13:32:43;;;;;;;1.53;0.90;;;10.20;73.30;;;;;;5034268;28;20973;-64
2021/03/12 13:35:13;;;;;;;3.00;0.83;;;10.50;73.20;;;;;;5034300;28;20450;-63
2021/03/12 13:37:41;;;;;;;5.10;1.30;;;10.90;72.30;;;;;;5033794;28;20480;-64
2021/03/12 13:40:12;;;;;;;3.63;1.30;;;11.60;73.10;;;;;;5033842;28;20424;-67
2021/03/12 13:42:40;;;;;;;3.43;1.07;;;11.80;73.50;;;;;;5033564;28;20455;-65
2021/03/12 13:45:09;;;;;;;4.37;1.10;;;11.30;74.80;;;;;;5033127;28;20934;-64
2021/03/12 13:47:36;;;;;;;4.13;0.90;;;11.40;75.30;;;;;;5033198;28;20485;-64